^^
Datos históricos de la estación: Murcia-Puente Tocinos
Diario Informe para Julio 25, 2019 Unidades:  Métrico    Ingés   Ambas
Diario Semanal Mensual Anual
  Máxima: Mínima: Promedio:
Temperatura: 32.2 °C 20.9 °C 25.5 °C
Punto de rocio: 20.7 °C 12.5 °C 16.3 °C
Humedad: 87% 32.7% 59%
Velocidad viento: 19.8km/h 2.9km/h 8.6km/h
Racha viento: 33.8km/h - -
Viento- - SSE
Presión: 1015.8 hPa 1011.8 hPa -
Precipitación: 0.0 mm    
 
 
Tabla de datos para Julio 25, 2019
Hora Temperatura Punto de rocio Presión Viento Velocidad viento Racha viento Humedad Intensidad lluvia(por hora) Nubes
00:04 24.4 °C 17.6 °C 1013.7 hPa SO 6.5 km/h 10 km/h 66.1% 0.0 mm
00:09 24.3 °C 17.8 °C 1013.5 hPa SSO 6.5 km/h 11.9 km/h 67% 0.0 mm
00:14 24.2 °C 17.8 °C 1013.5 hPa SSO 6.5 km/h 11.9 km/h 67.6% 0.0 mm
00:19 24 °C 17.8 °C 1013.6 hPa SSO 6.7 km/h 9.5 km/h 68.1% 0.0 mm
00:24 23.9 °C 17.9 °C 1013.6 hPa SO 7.6 km/h 10 km/h 69% 0.0 mm
00:29 23.9 °C 17.9 °C 1013.6 hPa SO 7.2 km/h 9.7 km/h 69% 0.0 mm
00:34 23.8 °C 17.8 °C 1013.6 hPa SO 5.8 km/h 11.1 km/h 69% 0.0 mm
00:39 23.8 °C 17.7 °C 1013.6 hPa SSO 6 km/h 11.3 km/h 68.7% 0.0 mm
00:44 23.7 °C 17.4 °C 1013.6 hPa SSO 6.9 km/h 13 km/h 67.8% 0.0 mm
00:49 23.6 °C 17.1 °C 1013.6 hPa SSO 7.2 km/h 13 km/h 67% 0.0 mm
00:54 23.5 °C 17.3 °C 1013.4 hPa SSO 8.4 km/h 11.9 km/h 67.9% 0.0 mm
00:59 23.4 °C 17.2 °C 1013.4 hPa SSO 8.4 km/h 11.9 km/h 68% 0.0 mm
01:04 23.3 °C 17.3 °C 1013.5 hPa Sur 8.4 km/h 13 km/h 68.8% 0.0 mm
01:09 23.3 °C 17.2 °C 1013.5 hPa Sur 8.4 km/h 13.7 km/h 68.9% 0.0 mm
01:14 23.2 °C 17.1 °C 1013.5 hPa SSO 8.7 km/h 16.7 km/h 68.4% 0.0 mm
01:19 23.2 °C 16.9 °C 1013.5 hPa SSO 9 km/h 18.5 km/h 68% 0.0 mm
01:24 23.3 °C 17 °C 1013.3 hPa SSO 10 km/h 19.3 km/h 68% 0.0 mm
01:29 23.3 °C 17.1 °C 1013.3 hPa SSO 9.7 km/h 14.5 km/h 68% 0.0 mm
01:34 23.3 °C 17.1 °C 1013.3 hPa SO 8.7 km/h 11.3 km/h 68% 0.0 mm
01:39 23.4 °C 17.2 °C 1013.3 hPa SO 8.5 km/h 11.9 km/h 68% 0.0 mm
01:44 23.4 °C 17.2 °C 1013.3 hPa OSO 7.6 km/h 11.3 km/h 68% 0.0 mm
01:49 23.4 °C 17.2 °C 1013.3 hPa SO 7.4 km/h 11.3 km/h 68% 0.0 mm
01:54 23.4 °C 17.2 °C 1013.2 hPa SO 6.9 km/h 11.9 km/h 68% 0.0 mm
01:59 23.4 °C 17.2 °C 1013.2 hPa SO 7.1 km/h 13 km/h 68% 0.0 mm
02:04 23.3 °C 17 °C 1013.2 hPa OSO 7.6 km/h 12.9 km/h 67.9% 0.0 mm
02:09 23.2 °C 17 °C 1013.1 hPa OSO 7.4 km/h 9.7 km/h 68% 0.0 mm
02:14 23.1 °C 17.1 °C 1013.1 hPa OSO 6.5 km/h 9.7 km/h 68.7% 0.0 mm
02:19 23 °C 17.2 °C 1013.2 hPa OSO 6.3 km/h 10 km/h 70% 0.0 mm
02:24 22.8 °C 17.3 °C 1013.2 hPa OSO 5.8 km/h 11.3 km/h 71% 0.0 mm
02:29 22.8 °C 17.3 °C 1013.2 hPa SO 5.6 km/h 11.3 km/h 71.4% 0.0 mm
02:34 22.7 °C 17.4 °C 1013.2 hPa SSO 5 km/h 9.7 km/h 72% 0.0 mm
02:39 22.8 °C 17.4 °C 1013.1 hPa SSO 5 km/h 9.7 km/h 71.5% 0.0 mm
02:44 22.8 °C 17.3 °C 1013.1 hPa SO 5 km/h 8 km/h 71% 0.0 mm
02:49 22.8 °C 17.3 °C 1013.1 hPa SSO 5 km/h 9.3 km/h 71% 0.0 mm
02:54 22.7 °C 17.2 °C 1013.1 hPa Sur 5 km/h 11.1 km/h 71% 0.0 mm
02:59 22.6 °C 17.3 °C 1013.1 hPa SSO 5.3 km/h 11.3 km/h 71.8% 0.0 mm
03:04 22.5 °C 17.2 °C 1013.1 hPa SSO 6.5 km/h 9.7 km/h 72% 0.0 mm
03:09 22.4 °C 17.3 °C 1013.0 hPa SSO 6.2 km/h 8.4 km/h 72.9% 0.0 mm
03:14 22.4 °C 17.3 °C 1013.0 hPa SO 5 km/h 9.3 km/h 73% 0.0 mm
03:19 22.4 °C 17.3 °C 1013.1 hPa SO 5 km/h 9.7 km/h 73% 0.0 mm
03:24 22.4 °C 17.3 °C 1013.1 hPa SO 5 km/h 9.3 km/h 73% 0.0 mm
03:29 22.4 °C 17.3 °C 1013.1 hPa SO 5.1 km/h 9.7 km/h 72.7% 0.0 mm
03:34 22.4 °C 17.2 °C 1013.1 hPa OSO 5.8 km/h 10 km/h 72.6% 0.0 mm
03:39 22.3 °C 17.4 °C 1013.0 hPa OSO 5.9 km/h 11.1 km/h 73.9% 0.0 mm
03:44 22.2 °C 17.3 °C 1013.0 hPa SO 6.4 km/h 11.3 km/h 74% 0.0 mm
03:49 22.1 °C 17.2 °C 1013.0 hPa SO 6.2 km/h 9.5 km/h 74% 0.0 mm
03:54 22.1 °C 17.1 °C 1013.0 hPa SSO 5 km/h 9.7 km/h 73.5% 0.0 mm
03:59 22.2 °C 16.9 °C 1013.0 hPa Sur 5 km/h 9.7 km/h 72.2% 0.0 mm
04:04 22.2 °C 16.9 °C 1013.0 hPa SO 5 km/h 8 km/h 72% 0.0 mm
04:09 22.2 °C 16.9 °C 1012.9 hPa SO 4.5 km/h 5.6 km/h 72% 0.0 mm
04:14 22.2 °C 16.9 °C 1012.9 hPa Sur 2.9 km/h 7.4 km/h 72% 0.0 mm
04:19 22.2 °C 16.9 °C 1012.9 hPa Sur 3 km/h 8 km/h 72.2% 0.0 mm
04:24 22.1 °C 17 °C 1012.8 hPa Sur 3.2 km/h 8.4 km/h 73% 0.0 mm
04:29 21.9 °C 16.9 °C 1012.8 hPa SSO 3.3 km/h 8 km/h 73% 0.0 mm
04:34 21.8 °C 16.7 °C 1012.8 hPa SO 3.9 km/h 8 km/h 73% 0.0 mm
04:39 21.8 °C 16.7 °C 1012.7 hPa SSO 4 km/h 9.3 km/h 72.9% 0.0 mm
04:44 21.7 °C 16.5 °C 1012.7 hPa SSO 4.7 km/h 9.7 km/h 72.1% 0.0 mm
04:49 21.7 °C 16.2 °C 1012.7 hPa SSO 4.7 km/h 9.3 km/h 70.7% 0.0 mm
04:54 21.7 °C 15.9 °C 1012.5 hPa SSO 5 km/h 9.7 km/h 69.7% 0.0 mm
04:59 21.7 °C 15.7 °C 1012.5 hPa SO 5 km/h 9.7 km/h 68.6% 0.0 mm
05:04 21.8 °C 15.6 °C 1012.7 hPa SO 5 km/h 8 km/h 68.1% 0.0 mm
05:09 21.8 °C 16.2 °C 1012.7 hPa NO 4.6 km/h 8 km/h 70.5% 0.0 mm
05:14 21.7 °C 16.2 °C 1012.7 hPa ESE 3.2 km/h 8.7 km/h 71% 0.0 mm
05:19 21.4 °C 16 °C 1012.8 hPa Sur 3.4 km/h 9.7 km/h 71% 0.0 mm
05:24 21.3 °C 15.6 °C 1012.8 hPa SO 3.9 km/h 9.7 km/h 69.9% 0.0 mm
05:29 21.3 °C 15.3 °C 1012.8 hPa SO 4.1 km/h 11.1 km/h 68.4% 0.0 mm
05:34 21.4 °C 15 °C 1012.8 hPa SSO 5 km/h 11.3 km/h 67% 0.0 mm
05:39 21.6 °C 15.1 °C 1012.8 hPa SSO 5.4 km/h 9.7 km/h 66.9% 0.0 mm
05:44 21.6 °C 15 °C 1012.8 hPa SSO 6.9 km/h 10 km/h 65.8% 0.0 mm
05:49 21.6 °C 14.7 °C 1012.9 hPa SSO 6.7 km/h 9.7 km/h 65% 0.0 mm
05:54 21.7 °C 14.8 °C 1012.9 hPa SSO 5.8 km/h 8 km/h 64.9% 0.0 mm
05:59 21.7 °C 14.7 °C 1012.9 hPa SE 5.2 km/h 8 km/h 64.6% 0.0 mm
06:04 21.7 °C 14.8 °C 1012.9 hPa OSO 3.2 km/h 8 km/h 65% 0.0 mm
06:09 21.7 °C 14.9 °C 1012.9 hPa Sur 3.4 km/h 8 km/h 65.2% 0.0 mm
06:14 21.7 °C 14.7 °C 1012.9 hPa SSO 3.9 km/h 8 km/h 64.6% 0.0 mm
06:19 21.7 °C 14.6 °C 1012.9 hPa SO 4 km/h 8.4 km/h 64% 0.0 mm
06:24 21.7 °C 14.4 °C 1012.9 hPa SSO 4.7 km/h 8 km/h 63.2% 0.0 mm
06:29 21.7 °C 14.6 °C 1012.9 hPa SO 4.7 km/h 8 km/h 63.8% 0.0 mm
06:34 21.7 °C 14.3 °C 1012.9 hPa OSO 4.7 km/h 8 km/h 63.1% 0.0 mm
06:39 21.7 °C 14.3 °C 1012.9 hPa OSO 4.7 km/h 11.1 km/h 62.8% 0.0 mm
06:44 21.7 °C 14.3 °C 1012.9 hPa SO 5 km/h 11.3 km/h 62.9% 0.0 mm
06:49 21.6 °C 14.1 °C 1013.1 hPa OSO 5.2 km/h 8.4 km/h 62.4% 0.0 mm
06:54 21.6 °C 14 °C 1013.1 hPa OSO 5.8 km/h 8.7 km/h 62.1% 0.0 mm
06:59 21.5 °C 14.2 °C 1013.1 hPa OSO 5.6 km/h 8 km/h 63.1% 0.0 mm
07:04 21.3 °C 14.3 °C 1013.1 hPa OSO 5 km/h 8 km/h 64.1% 0.0 mm
07:09 21.2 °C 14.3 °C 1013.0 hPa Oeste 4.9 km/h 8 km/h 65% 0.0 mm
07:14 21.1 °C 14.3 °C 1013.0 hPa Oeste 4.7 km/h 8.4 km/h 65% 0.0 mm
07:19 21 °C 14.2 °C 1013.1 hPa OSO 4.7 km/h 8.4 km/h 65% 0.0 mm
07:24 20.9 °C 14.1 °C 1013.1 hPa SO 5 km/h 8 km/h 65% 0.0 mm
07:29 20.9 °C 13.9 °C 1013.1 hPa SO 5 km/h 8 km/h 64.2% 0.0 mm
07:34 21.1 °C 13.8 °C 1013.2 hPa SO 5 km/h 8 km/h 62.9% 0.0 mm
07:39 21.3 °C 13.6 °C 1013.2 hPa SSO 5.2 km/h 9.5 km/h 61.2% 0.0 mm
07:44 21.6 °C 13.2 °C 1013.2 hPa SSO 5.8 km/h 9.7 km/h 59.2% 0.0 mm
07:49 21.7 °C 13.2 °C 1013.3 hPa SSO 5.9 km/h 11.1 km/h 58.4% 0.0 mm
07:54 21.9 °C 13.1 °C 1013.3 hPa SSO 6.5 km/h 11.9 km/h 57.6% 0.0 mm
07:59 22.1 °C 12.8 °C 1013.3 hPa SSO 7 km/h 13.7 km/h 55.9% 0.0 mm
08:04 22.2 °C 12.8 °C 1013.3 hPa SSO 8.7 km/h 14.8 km/h 55.1% 0.0 mm
08:09 22.3 °C 12.6 °C 1013.3 hPa SSO 8.7 km/h 14.5 km/h 54.3% 0.0 mm
08:14 22.4 °C 12.6 °C 1013.3 hPa SO 8.7 km/h 12.9 km/h 54% 0.0 mm
08:19 22.5 °C 12.5 °C 1013.5 hPa SO 8.6 km/h 13 km/h 53.1% 0.0 mm
08:24 22.7 °C 12.6 °C 1013.5 hPa SO 8.4 km/h 16.7 km/h 53% 0.0 mm
08:29 22.8 °C 12.7 °C 1013.5 hPa SO 9 km/h 18 km/h 52.9% 0.0 mm
08:34 22.9 °C 12.9 °C 1013.6 hPa SO 11.1 km/h 19.3 km/h 53% 0.0 mm
08:39 23.1 °C 12.9 °C 1013.6 hPa SO 10.9 km/h 19.8 km/h 52.9% 0.0 mm
08:44 23.2 °C 12.7 °C 1013.6 hPa SO 10.3 km/h 20.9 km/h 52% 0.0 mm
08:49 23.3 °C 12.8 °C 1013.7 hPa SO 10.3 km/h 20.9 km/h 51.9% 0.0 mm
08:54 23.4 °C 12.7 °C 1013.7 hPa SO 10.3 km/h 16.1 km/h 51% 0.0 mm
08:59 23.5 °C 12.8 °C 1013.7 hPa SO 10.3 km/h 16.7 km/h 51% 0.0 mm
09:04 23.7 °C 12.8 °C 1013.7 hPa SSO 10.3 km/h 16.1 km/h 50.7% 0.0 mm
09:09 23.9 °C 12.8 °C 1013.7 hPa SSO 10.3 km/h 19 km/h 49.8% 0.0 mm
09:14 24.1 °C 12.7 °C 1013.7 hPa SSO 10.3 km/h 19.3 km/h 49% 0.0 mm
09:19 24.1 °C 12.8 °C 1013.8 hPa SSO 10.7 km/h 19.3 km/h 49.3% 0.0 mm
09:24 24.2 °C 13.1 °C 1013.8 hPa SO 11.9 km/h 15.6 km/h 49.9% 0.0 mm
09:29 24.2 °C 12.9 °C 1013.8 hPa SO 11.6 km/h 18.5 km/h 49.2% 0.0 mm
09:34 24.3 °C 13.2 °C 1013.9 hPa SSO 10.3 km/h 19.3 km/h 50% 0.0 mm
09:39 24.3 °C 13.2 °C 1013.9 hPa SO 10.2 km/h 16.7 km/h 49.9% 0.0 mm
09:44 24.4 °C 13.3 °C 1013.9 hPa SO 10 km/h 16.1 km/h 50% 0.0 mm
09:49 24.5 °C 13.2 °C 1014.0 hPa SO 9.7 km/h 16.1 km/h 49.6% 0.0 mm
09:54 24.6 °C 13.4 °C 1014.0 hPa SSO 8.7 km/h 16.1 km/h 49.9% 0.0 mm
09:59 24.7 °C 13.3 °C 1014.0 hPa SO 8.7 km/h 16.1 km/h 49.2% 0.0 mm
10:04 24.8 °C 13.5 °C 1014.2 hPa SO 8.7 km/h 16.7 km/h 49.5% 0.0 mm
10:09 24.9 °C 13.8 °C 1014.2 hPa SO 8.7 km/h 16.1 km/h 50.1% 0.0 mm
10:14 25.1 °C 14 °C 1014.2 hPa SO 8.7 km/h 14.8 km/h 50.2% 0.0 mm
10:19 25.2 °C 14.2 °C 1014.3 hPa SO 8.7 km/h 16.4 km/h 50.7% 0.0 mm
10:24 25.2 °C 14.4 °C 1014.3 hPa SO 8.7 km/h 16.7 km/h 51.2% 0.0 mm
10:29 25.3 °C 14.8 °C 1014.3 hPa SO 8.7 km/h 16.4 km/h 52% 0.0 mm
10:34 25.5 °C 15.2 °C 1014.4 hPa SO 8.7 km/h 16.7 km/h 52.7% 0.0 mm
10:39 25.7 °C 15.4 °C 1014.4 hPa SO 9.1 km/h 16.7 km/h 53% 0.0 mm
10:44 25.8 °C 15.5 °C 1014.4 hPa OSO 10.3 km/h 16.7 km/h 53% 0.0 mm
10:49 26 °C 15.6 °C 1014.5 hPa SO 10 km/h 17.2 km/h 53% 0.0 mm
10:54 26.2 °C 15.8 °C 1014.5 hPa SO 8.7 km/h 20.4 km/h 53% 0.0 mm
10:59 26.3 °C 15.9 °C 1014.5 hPa OSO 9.3 km/h 20.9 km/h 53% 0.0 mm
11:04 26.3 °C 16 °C 1014.5 hPa OSO 11.1 km/h 22.5 km/h 53.1% 0.0 mm
11:09 26.5 °C 16.1 °C 1014.5 hPa SO 10.9 km/h 22.5 km/h 52.8% 0.0 mm
11:14 26.7 °C 16.2 °C 1014.5 hPa Oeste 10.3 km/h 20.9 km/h 52.7% 0.0 mm
11:19 26.8 °C 16.3 °C 1014.6 hPa OSO 9.9 km/h 18.5 km/h 52.7% 0.0 mm
11:24 26.8 °C 16.3 °C 1014.6 hPa SO 8.4 km/h 19.3 km/h 52.5% 0.0 mm
11:29 26.9 °C 16.2 °C 1014.6 hPa OSO 8.8 km/h 20.4 km/h 52% 0.0 mm
11:34 27 °C 16.3 °C 1014.6 hPa OSO 10.3 km/h 20.9 km/h 51.9% 0.0 mm
11:39 27.2 °C 16.3 °C 1014.6 hPa Oeste 10.5 km/h 19.3 km/h 51.6% 0.0 mm
11:44 27.3 °C 16.3 °C 1014.6 hPa Oeste 11.1 km/h 19.3 km/h 51% 0.0 mm
11:49 27.4 °C 16.2 °C 1014.6 hPa Oeste 11.1 km/h 22.2 km/h 50.3% 0.0 mm
11:54 27.5 °C 16.2 °C 1014.6 hPa Oeste 11.1 km/h 22.5 km/h 50% 0.0 mm
11:59 27.7 °C 16.3 °C 1014.6 hPa Oeste 11.1 km/h 22.5 km/h 50.1% 0.0 mm
12:04 27.7 °C 16.3 °C 1014.6 hPa Oeste 11.1 km/h 22.5 km/h 49.9% 0.0 mm
12:09 27.8 °C 16.2 °C 1014.5 hPa Oeste 11.1 km/h 22.2 km/h 49.3% 0.0 mm
12:14 27.8 °C 16.1 °C 1014.5 hPa ONO 11.1 km/h 22.5 km/h 49% 0.0 mm
12:19 27.9 °C 16.2 °C 1014.5 hPa Oeste 11.5 km/h 22.5 km/h 49% 0.0 mm
12:24 28 °C 16.2 °C 1014.4 hPa Oeste 13 km/h 24.5 km/h 48.7% 0.0 mm
12:29 28.1 °C 16.4 °C 1014.4 hPa OSO 12.6 km/h 24.1 km/h 49% 0.0 mm
12:34 28.1 °C 16.4 °C 1014.4 hPa SO 11.1 km/h 19.3 km/h 48.9% 0.0 mm
12:39 28.3 °C 16.5 °C 1014.2 hPa SO 10.6 km/h 16.1 km/h 48.8% 0.0 mm
12:44 28.4 °C 16.3 °C 1014.2 hPa OSO 8.7 km/h 17.2 km/h 47.8% 0.0 mm
12:49 28.5 °C 16.3 °C 1014.2 hPa SO 9 km/h 17.7 km/h 47.7% 0.0 mm
12:54 28.6 °C 16.3 °C 1014.1 hPa SO 10 km/h 16.1 km/h 47.2% 0.0 mm
12:59 28.7 °C 16.2 °C 1014.1 hPa Oeste 9.3 km/h 15.6 km/h 46.7% 0.0 mm
13:04 28.8 °C 16 °C 1014.1 hPa ONO 7.6 km/h 18.5 km/h 46% 0.0 mm
13:09 28.8 °C 16 °C 1014.0 hPa SO 7.6 km/h 19.3 km/h 45.7% 0.0 mm
13:14 28.9 °C 16 °C 1014.0 hPa Oeste 7.6 km/h 18.5 km/h 45.6% 0.0 mm
13:19 28.8 °C 16 °C 1014.0 hPa Oeste 8.1 km/h 20.4 km/h 45.9% 0.0 mm
13:24 28.9 °C 16.1 °C 1013.7 hPa SO 10 km/h 20.9 km/h 46% 0.0 mm
13:29 29.1 °C 16.1 °C 1013.7 hPa ONO 8.9 km/h 11.3 km/h 45.6% 0.0 mm
13:34 29.3 °C 16.1 °C 1013.7 hPa OSO 5 km/h 14.8 km/h 45% 0.0 mm
13:39 29.3 °C 15.9 °C 1013.5 hPa OSO 5.5 km/h 18.5 km/h 44.3% 0.0 mm
13:44 29.4 °C 15.9 °C 1013.5 hPa NNO 7.6 km/h 19.3 km/h 44% 0.0 mm
13:49 29.5 °C 16 °C 1013.5 hPa NNO 7 km/h 11.9 km/h 44% 0.0 mm
13:54 29.7 °C 16.2 °C 1013.4 hPa OSO 5 km/h 14.8 km/h 44% 0.0 mm
13:59 29.8 °C 16.1 °C 1013.4 hPa SSE 5.5 km/h 14.5 km/h 43.6% 0.0 mm
14:04 29.9 °C 16.1 °C 1013.4 hPa SSE 6.9 km/h 13 km/h 43.3% 0.0 mm
14:09 29.9 °C 15.9 °C 1013.1 hPa Sur 7.1 km/h 14.8 km/h 42.6% 0.0 mm
14:14 29.9 °C 15.6 °C 1013.1 hPa SSE 7.6 km/h 14.5 km/h 42% 0.0 mm
14:19 30 °C 15.7 °C 1013.1 hPa North 7.2 km/h 11.3 km/h 42.2% 0.0 mm
14:24 30.2 °C 15.9 °C 1013.0 hPa ESE 5.8 km/h 10 km/h 42% 0.0 mm
14:29 30.5 °C 15.9 °C 1013.0 hPa SO 5.6 km/h 9.7 km/h 41.3% 0.0 mm
14:34 30.6 °C 15.8 °C 1013.0 hPa ESE 5 km/h 11.1 km/h 41% 0.0 mm
14:39 30.6 °C 15.9 °C 1012.8 hPa Este 5.2 km/h 16.4 km/h 41.2% 0.0 mm
14:44 30.7 °C 15.2 °C 1012.8 hPa ESE 5.8 km/h 17.2 km/h 39.3% 0.0 mm
14:49 30.5 °C 15.4 °C 1012.8 hPa Este 6.4 km/h 17.7 km/h 40% 0.0 mm
14:54 30.5 °C 15.4 °C 1012.7 hPa ENE 8.7 km/h 10 km/h 40.2% 0.0 mm
14:59 30.6 °C 15.4 °C 1012.7 hPa ENE 8.1 km/h 13 km/h 39.9% 0.0 mm
15:04 30.7 °C 15 °C 1012.7 hPa Este 5.8 km/h 13 km/h 38.6% 0.0 mm
15:09 30.7 °C 15.1 °C 1012.5 hPa NE 6 km/h 18.3 km/h 39% 0.0 mm
15:14 30.8 °C 15.2 °C 1012.5 hPa NE 6.9 km/h 19.3 km/h 38.9% 0.0 mm
15:19 30.8 °C 15.3 °C 1012.5 hPa ENE 6.9 km/h 12.9 km/h 39% 0.0 mm
15:24 31.1 °C 15.1 °C 1012.4 hPa ESE 6.9 km/h 11.3 km/h 38% 0.0 mm
15:29 31.2 °C 15 °C 1012.4 hPa ESE 6.9 km/h 13 km/h 37.5% 0.0 mm
15:34 31.1 °C 15 °C 1012.4 hPa ESE 6.9 km/h 14.8 km/h 37.8% 0.0 mm
15:39 31.2 °C 14.9 °C 1012.3 hPa SE 7.3 km/h 14.5 km/h 37.3% 0.0 mm
15:44 31.3 °C 14.9 °C 1012.3 hPa SSE 8.4 km/h 14.8 km/h 37.2% 0.0 mm
15:49 31.3 °C 14.9 °C 1012.3 hPa Este 7.9 km/h 16.1 km/h 37% 0.0 mm
15:54 31.3 °C 14.9 °C 1012.1 hPa SSO 6.5 km/h 16.1 km/h 37.1% 0.0 mm
15:59 31.5 °C 14.7 °C 1012.1 hPa SSO 6 km/h 10.3 km/h 36.3% 0.0 mm
16:04 31.8 °C 14.7 °C 1012.1 hPa SSE 4.7 km/h 11.3 km/h 35.6% 0.0 mm
16:09 32.1 °C 14.5 °C 1012.0 hPa SSE 4.7 km/h 11.3 km/h 34.5% 0.0 mm
16:14 32.2 °C 14.1 °C 1012.0 hPa Este 4.7 km/h 11.1 km/h 33.5% 0.0 mm
16:19 32.1 °C 13.6 °C 1012.0 hPa ESE 4.9 km/h 15.6 km/h 32.7% 0.0 mm
16:24 31.9 °C 13.5 °C 1011.9 hPa ESE 5.8 km/h 16.1 km/h 32.8% 0.0 mm
16:29 31.9 °C 13.6 °C 1011.9 hPa ESE 6.6 km/h 14.8 km/h 33% 0.0 mm
16:34 31.9 °C 13.8 °C 1011.9 hPa ESE 9.5 km/h 16.7 km/h 33.3% 0.0 mm
16:39 31.9 °C 14.1 °C 1011.9 hPa ONO 8.9 km/h 16.1 km/h 34% 0.0 mm
16:44 31.9 °C 14.4 °C 1011.9 hPa SE 6.9 km/h 20.4 km/h 34.7% 0.0 mm
16:49 31.7 °C 14.4 °C 1011.9 hPa SE 8 km/h 20.9 km/h 35.1% 0.0 mm
16:54 31.7 °C 14.4 °C 1011.8 hPa SE 11.9 km/h 17.2 km/h 35.2% 0.0 mm
16:59 31.8 °C 15 °C 1011.8 hPa SSE 11.9 km/h 23.3 km/h 36.4% 0.0 mm
17:04 31.7 °C 15.2 °C 1011.8 hPa SSE 11.9 km/h 22.5 km/h 36.9% 0.0 mm
17:09 31.4 °C 15 °C 1011.8 hPa SSE 12.3 km/h 24.1 km/h 37.1% 0.0 mm
17:14 31.2 °C 15.1 °C 1011.8 hPa SSE 13.7 km/h 24.1 km/h 37.6% 0.0 mm
17:19 31.3 °C 15.1 °C 1011.9 hPa SSE 13.7 km/h 22.5 km/h 37.5% 0.0 mm
17:24 31.2 °C 15.2 °C 1011.9 hPa SE 14 km/h 27 km/h 38% 0.0 mm
17:29 30.9 °C 15.1 °C 1011.9 hPa SE 14.9 km/h 33.3 km/h 38.3% 0.0 mm
17:34 30.7 °C 15.5 °C 1012.0 hPa ESE 18 km/h 33.8 km/h 39.8% 0.0 mm
17:39 30.5 °C 15.7 °C 1012.0 hPa ESE 17.9 km/h 29.6 km/h 40.8% 0.0 mm
17:44 30.3 °C 15.5 °C 1012.0 hPa ESE 17.2 km/h 30.6 km/h 41% 0.0 mm
17:49 30.1 °C 15.5 °C 1012.0 hPa ESE 17.5 km/h 30.6 km/h 41.2% 0.0 mm
17:54 30.1 °C 15.6 °C 1012.0 hPa ESE 18.4 km/h 25.9 km/h 41.5% 0.0 mm
17:59 30.1 °C 15.4 °C 1012.0 hPa SE 17.6 km/h 25.7 km/h 41% 0.0 mm
18:04 30.1 °C 15.4 °C 1012.0 hPa SE 15.6 km/h 29.6 km/h 41% 0.0 mm
18:09 30 °C 15.3 °C 1012.0 hPa SE 16 km/h 29 km/h 41% 0.0 mm
18:14 29.9 °C 15.4 °C 1012.0 hPa SE 17.2 km/h 27.4 km/h 41.5% 0.0 mm
18:19 29.9 °C 15.4 °C 1012.1 hPa SE 16.3 km/h 25.7 km/h 41.5% 0.0 mm
18:24 29.8 °C 15.2 °C 1012.1 hPa SE 13 km/h 22.5 km/h 41% 0.0 mm
18:29 29.7 °C 15.4 °C 1012.1 hPa SE 13 km/h 22.5 km/h 41.8% 0.0 mm
18:34 29.7 °C 15.4 °C 1012.2 hPa SE 13 km/h 20.9 km/h 41.8% 0.0 mm
18:39 29.6 °C 15.3 °C 1012.2 hPa SE 13 km/h 20.9 km/h 41.9% 0.0 mm
18:44 29.7 °C 15.3 °C 1012.2 hPa SSE 13 km/h 20.9 km/h 41.9% 0.0 mm
18:49 29.7 °C 15.4 °C 1012.2 hPa SE 12.6 km/h 20.9 km/h 41.9% 0.0 mm
18:54 29.6 °C 15.3 °C 1012.2 hPa SE 11.1 km/h 20.9 km/h 42% 0.0 mm
18:59 29.4 °C 15.1 °C 1012.2 hPa SE 11.3 km/h 20.9 km/h 42% 0.0 mm
19:04 29.3 °C 15.2 °C 1012.2 hPa SE 11.9 km/h 20.9 km/h 42.4% 0.0 mm
19:09 29.3 °C 15.4 °C 1012.2 hPa SE 11.5 km/h 19.3 km/h 43% 0.0 mm
19:14 29.2 °C 15.3 °C 1012.2 hPa ESE 10 km/h 14.5 km/h 43% 0.0 mm
19:19 29 °C 15.3 °C 1012.6 hPa ESE 9.9 km/h 15.6 km/h 43.5% 0.0 mm
19:24 28.8 °C 15.4 °C 1012.6 hPa ESE 9.5 km/h 16.1 km/h 44% 0.0 mm
19:29 28.7 °C 15.5 °C 1012.6 hPa NE 9.1 km/h 15.6 km/h 44.6% 0.0 mm
19:34 28.4 °C 15.7 °C 1013.0 hPa NE 7.6 km/h 22.2 km/h 46.2% 0.0 mm
19:39 28.1 °C 16.1 °C 1013.0 hPa NNE 8.6 km/h 22.5 km/h 48% 0.0 mm
19:44 28 °C 16.1 °C 1013.0 hPa NNE 12.2 km/h 20.9 km/h 48.6% 0.0 mm
19:49 27.6 °C 16.9 °C 1013.2 hPa NNE 12 km/h 26.2 km/h 52.1% 0.0 mm
19:54 26.9 °C 17.8 °C 1013.2 hPa NNE 11.1 km/h 25.7 km/h 57.4% 0.0 mm
19:59 26.4 °C 18.2 °C 1013.2 hPa NNE 12.1 km/h 25.7 km/h 60.8% 0.0 mm
20:04 26.1 °C 18.6 °C 1013.4 hPa NNE 14.8 km/h 31.5 km/h 63.4% 0.0 mm
20:09 25.8 °C 18.7 °C 1013.4 hPa NE 15 km/h 32.2 km/h 64.9% 0.0 mm
20:14 25.6 °C 19.3 °C 1013.4 hPa NE 15.6 km/h 27.8 km/h 68.4% 0.0 mm
20:19 25.2 °C 19.5 °C 1013.7 hPa NE 16.2 km/h 28.6 km/h 70.7% 0.0 mm
20:24 25 °C 19.6 °C 1013.7 hPa NE 18.4 km/h 33.5 km/h 71.9% 0.0 mm
20:29 24.8 °C 19.6 °C 1013.7 hPa NNE 18.7 km/h 33.8 km/h 72.7% 0.0 mm
20:34 24.7 °C 19.6 °C 1013.9 hPa NE 19.8 km/h 30.6 km/h 73% 0.0 mm
20:39 24.7 °C 19.7 °C 1013.9 hPa NNE 19.1 km/h 25.1 km/h 73.7% 0.0 mm
20:44 24.5 °C 19.9 °C 1013.9 hPa NE 16.1 km/h 25.9 km/h 75.4% 0.0 mm
20:49 24.4 °C 20 °C 1014.1 hPa NE 16.2 km/h 25.9 km/h 76.4% 0.0 mm
20:54 24.3 °C 20 °C 1014.1 hPa NE 16.4 km/h 24.1 km/h 77% 0.0 mm
20:59 24.3 °C 20 °C 1014.1 hPa NE 15.5 km/h 22.5 km/h 77% 0.0 mm
21:04 24.2 °C 20.1 °C 1014.4 hPa NE 13 km/h 22.5 km/h 77.9% 0.0 mm
21:09 24.2 °C 20.3 °C 1014.4 hPa NE 13.2 km/h 22.2 km/h 78.9% 0.0 mm
21:14 24.1 °C 20.4 °C 1014.4 hPa NE 13.7 km/h 22.5 km/h 79.9% 0.0 mm
21:19 24 °C 20.5 °C 1014.7 hPa NE 13.4 km/h 22.5 km/h 80.7% 0.0 mm
21:24 23.9 °C 20.5 °C 1014.7 hPa NE 12.2 km/h 22.2 km/h 81.4% 0.0 mm
21:29 23.9 °C 20.6 °C 1014.7 hPa NE 12.4 km/h 22.5 km/h 82% 0.0 mm
21:34 23.8 °C 20.6 °C 1014.9 hPa NNE 13 km/h 19.3 km/h 82.6% 0.0 mm
21:39 23.7 °C 20.7 °C 1014.9 hPa NE 12.8 km/h 19.3 km/h 83% 0.0 mm
21:44 23.7 °C 20.7 °C 1014.9 hPa NE 11.9 km/h 18 km/h 83% 0.0 mm
21:49 23.7 °C 20.7 °C 1015.0 hPa NE 11.6 km/h 17.7 km/h 83.6% 0.0 mm
21:54 23.6 °C 20.7 °C 1015.0 hPa NE 10.3 km/h 19 km/h 84% 0.0 mm
21:59 23.6 °C 20.7 °C 1015.0 hPa NE 10.4 km/h 19.3 km/h 84% 0.0 mm
22:04 23.5 °C 20.6 °C 1015.1 hPa NE 11.1 km/h 19.3 km/h 84% 0.0 mm
22:09 23.4 °C 20.6 °C 1015.1 hPa NE 11 km/h 16.1 km/h 84.2% 0.0 mm
22:14 23.4 °C 20.7 °C 1015.1 hPa NE 10 km/h 16.1 km/h 85% 0.0 mm
22:19 23.4 °C 20.7 °C 1015.2 hPa NE 9.9 km/h 15.6 km/h 85% 0.0 mm
22:24 23.3 °C 20.7 °C 1015.2 hPa NE 9.5 km/h 16.1 km/h 85% 0.0 mm
22:29 23.3 °C 20.6 °C 1015.2 hPa NE 9.1 km/h 15.6 km/h 85% 0.0 mm
22:34 23.3 °C 20.6 °C 1015.4 hPa NNE 7.6 km/h 16.1 km/h 85% 0.0 mm
22:39 23.2 °C 20.6 °C 1015.4 hPa NNE 7.6 km/h 11.9 km/h 85% 0.0 mm
22:44 23.2 °C 20.6 °C 1015.4 hPa NE 7.6 km/h 13 km/h 85.6% 0.0 mm
22:49 23.1 °C 20.6 °C 1015.5 hPa NE 7.8 km/h 14.8 km/h 86% 0.0 mm
22:54 23.1 °C 20.6 °C 1015.5 hPa NE 8.4 km/h 14.5 km/h 86% 0.0 mm
22:59 23.1 °C 20.6 °C 1015.5 hPa NNE 8.4 km/h 12.9 km/h 86% 0.0 mm
23:04 23.1 °C 20.6 °C 1015.6 hPa NE 8.4 km/h 11.3 km/h 86% 0.0 mm
23:09 23.1 °C 20.6 °C 1015.6 hPa NE 8 km/h 11.3 km/h 86% 0.0 mm
23:14 23.1 °C 20.6 °C 1015.6 hPa NE 6.9 km/h 13.7 km/h 86% 0.0 mm
23:19 23.1 °C 20.6 °C 1015.6 hPa NNE 6.9 km/h 14.5 km/h 86% 0.0 mm
23:24 23.1 °C 20.6 °C 1015.6 hPa NE 6.9 km/h 11.1 km/h 86% 0.0 mm
23:29 23 °C 20.6 °C 1015.6 hPa NNE 6.8 km/h 11.3 km/h 86% 0.0 mm
23:34 23 °C 20.6 °C 1015.8 hPa NNE 6.5 km/h 9.7 km/h 86% 0.0 mm
23:39 22.9 °C 20.5 °C 1015.8 hPa North 5.7 km/h 8 km/h 86% 0.0 mm
23:44 22.9 °C 20.4 °C 1015.8 hPa NO 3.2 km/h 8 km/h 86% 0.0 mm
23:49 22.8 °C 20.5 °C 1015.8 hPa NNE 3.3 km/h 8.7 km/h 86.7% 0.0 mm
23:54 22.8 °C 20.5 °C 1015.8 hPa NE 3.9 km/h 9.7 km/h 87% 0.0 mm
23:59 22.8 °C 20.5 °C 1015.8 hPa NNE 4.1 km/h 8 km/h 87% 0.0 mm
Murcia-Puente Tocinos, España
Compliments of Weather Underground - 3 mb

La estación de MeteoMurcia.com, publica sus datos en los siguientes proyectos:

Weather Underground PWS IMURCIAP2 Meteoclimatic www.awekas.at

W3Counter
Web Analytics